Time;durP1;ratioP1;P1;durP2;ratioP2;P2;SDS_P1;SDS_P2;PMS_P1;PMS_P2;Temp;Humidity;BMP_temperature;BMP_pressure;BME280_temperature;BME280_humidity;BME280_pressure;Samples;Min_cycle;Max_cycle;Signal;HPM_P1;HPM_P2
2023/06/20 04:32:39;;;;;;;;;4.00;3.25;;;;;31.01;45.21;100515.69;5040329;27;45343;-74
2023/06/20 04:35:04;;;;;;;;;8.00;7.00;;;;;30.93;44.84;100521.44;5054524;28;46196;-75
2023/06/20 04:37:30;;;;;;;;;5.25;3.50;;;;;30.95;45.07;100520.16;5045214;28;45376;-72
2023/06/20 04:39:59;;;;;;;;;4.00;4.00;;;;;30.92;45.42;100516.94;5049634;28;47183;-73
2023/06/20 04:42:24;;;;;;;;;4.75;4.75;;;;;30.98;45.08;100513.34;5035635;28;45422;-71
2023/06/20 04:44:50;;;;;;;;;6.75;4.75;;;;;30.92;45.13;100505.88;5035491;28;46010;-72
2023/06/20 04:47:16;;;;;;;;;8.00;5.25;;;;;30.94;44.96;100501.00;5035300;28;45325;-73
2023/06/20 04:49:41;;;;;;;;;6.75;5.25;;;;;30.92;44.82;100500.34;5036195;28;45554;-70
2023/06/20 04:52:07;;;;;;;;;4.00;4.00;;;;;31.03;44.67;100505.28;5036366;28;45354;-71
2023/06/20 04:54:32;;;;;;;;;5.50;5.50;;;;;31.08;44.98;100502.75;5034263;28;45399;-71
2023/06/20 04:56:57;;;;;;;;;4.75;3.75;;;;;31.15;44.53;100496.16;5036477;28;45361;-72
2023/06/20 04:59:23;;;;;;;;;7.00;5.00;;;;;31.20;44.03;100496.41;5035992;28;45374;-72
2023/06/20 05:01:51;;;;;;;;;4.75;4.75;;;;;31.19;44.13;100505.78;5035963;28;45391;-71
2023/06/20 05:04:17;;;;;;;;;5.50;4.25;;;;;31.20;44.20;100501.09;5019745;28;47181;-71
2023/06/20 05:06:43;;;;;;;;;4.75;4.75;;;;;31.11;44.11;100502.34;5055866;28;45328;-73
2023/06/20 05:09:08;;;;;;;;;8.00;3.50;;;;;31.25;44.23;100498.53;5039295;28;45624;-69
2023/06/20 05:11:34;;;;;;;;;7.75;5.00;;;;;31.32;44.24;100502.16;5036372;28;45459;-72
2023/06/20 05:13:59;;;;;;;;;4.50;4.00;;;;;31.37;43.75;100507.06;5035545;28;47286;-70
2023/06/20 05:16:24;;;;;;;;;6.75;4.00;;;;;31.37;44.25;100499.63;5036082;28;45375;-73
2023/06/20 05:18:50;;;;;;;;;4.00;4.00;;;;;31.42;43.45;100493.44;5017776;28;45266;-72
2023/06/20 05:21:15;;;;;;;;;5.00;4.50;;;;;31.57;43.97;100492.16;5034746;28;45485;-72
2023/06/20 05:23:40;;;;;;;;;4.00;4.00;;;;;31.53;43.63;100495.56;5035725;28;45339;-73
2023/06/20 05:26:06;;;;;;;;;5.00;4.25;;;;;31.53;43.40;100496.44;5027937;28;45432;-75
2023/06/20 05:28:31;;;;;;;;;7.50;6.00;;;;;31.59;43.14;100501.13;5034892;28;45308;-73
2023/06/20 05:30:56;;;;;;;;;4.75;4.50;;;;;31.61;43.54;100486.19;5021638;28;47700;-74
2023/06/20 05:33:22;;;;;;;;;5.50;4.25;;;;;31.64;43.60;100485.81;5037371;28;48201;-74
2023/06/20 05:35:47;;;;;;;;;10.00;6.00;;;;;31.59;43.43;100491.94;5046580;28;45492;-74
2023/06/20 05:38:13;;;;;;;;;6.00;5.50;;;;;31.55;43.03;100482.38;5038130;28;45413;-75
2023/06/20 05:40:38;;;;;;;;;5.75;5.75;;;;;31.64;42.90;100483.91;5045902;28;45295;-75
2023/06/20 05:43:04;;;;;;;;;8.00;6.00;;;;;31.67;43.25;100477.03;5035086;28;45203;-75
2023/06/20 05:45:29;;;;;;;;;4.50;4.25;;;;;31.76;43.13;100476.63;5035491;28;45216;-75
2023/06/20 05:47:54;;;;;;;;;9.00;6.00;;;;;31.79;42.55;100478.13;5035278;28;45363;-73
2023/06/20 05:50:20;;;;;;;;;9.25;6.50;;;;;31.85;42.33;100474.47;5035387;28;45482;-76
2023/06/20 05:52:45;;;;;;;;;9.75;6.00;;;;;31.75;42.47;100490.69;5035068;28;45334;-74
2023/06/20 05:55:11;;;;;;;;;6.00;4.75;;;;;31.76;43.27;100487.72;5037886;28;45393;-75
2023/06/20 05:57:37;;;;;;;;;5.00;5.00;;;;;31.74;43.06;100486.19;5035376;28;45444;-76
2023/06/20 06:00:12;;;;;;;;;7.50;7.25;;;;;31.77;43.10;100486.66;5034783;28;45400;-76
2023/06/20 06:02:39;;;;;;;;;4.75;4.00;;;;;31.63;42.85;100489.66;5034654;28;45441;-76
2023/06/20 06:05:05;;;;;;;;;8.50;5.00;;;;;31.70;42.98;100487.72;5043692;28;45375;-79
2023/06/20 06:07:30;;;;;;;;;7.50;6.75;;;;;31.69;42.99;100484.09;5052736;28;45467;-78
2023/06/20 06:09:56;;;;;;;;;7.25;5.75;;;;;31.77;42.73;100485.78;5035557;28;45553;-78
2023/06/20 06:12:21;;;;;;;;;8.00;6.25;;;;;31.74;43.24;100484.28;5035558;28;46223;-76
2023/06/20 06:14:47;;;;;;;;;5.75;4.75;;;;;31.64;42.89;100480.25;5035531;28;45352;-78
2023/06/20 06:17:13;;;;;;;;;5.50;4.75;;;;;31.83;42.82;100487.69;5035416;28;45514;-77
2023/06/20 06:19:38;;;;;;;;;6.75;6.25;;;;;31.77;42.63;100485.78;5034901;28;45324;-76
2023/06/20 06:22:04;;;;;;;;;8.00;6.25;;;;;31.71;42.79;100481.97;5034386;28;46055;-76
2023/06/20 06:24:29;;;;;;;;;5.75;4.75;;;;;31.79;42.87;100489.22;5017209;28;45320;-76
2023/06/20 06:26:55;;;;;;;;;7.75;5.00;;;;;31.89;42.60;100493.25;5035213;28;45804;-75
2023/06/20 06:29:20;;;;;;;;;14.00;8.50;;;;;31.86;42.80;100490.91;5034775;28;45277;-73
2023/06/20 06:31:46;;;;;;;;;12.50;7.75;;;;;31.95;42.84;100497.06;5025037;28;46530;-77
2023/06/20 06:34:16;;;;;;;;;7.50;5.25;;;;;32.10;42.81;100502.38;5037338;28;45378;-77
2023/06/20 06:36:43;;;;;;;;;8.75;7.25;;;;;32.10;42.44;100514.31;5024518;28;45433;-76
2023/06/20 06:39:11;;;;;;;;;6.00;5.00;;;;;32.13;42.47;100504.72;5054598;28;45379;-76
2023/06/20 06:41:37;;;;;;;;;8.00;7.00;;;;;32.18;42.18;100510.50;5037131;28;45285;-76
2023/06/20 06:44:02;;;;;;;;;9.75;6.75;;;;;32.21;42.31;100515.63;5034795;28;45369;-76
2023/06/20 06:46:28;;;;;;;;;5.00;4.00;;;;;32.17;42.06;100517.09;5034332;28;45411;-76
2023/06/20 06:48:53;;;;;;;;;10.50;9.75;;;;;32.31;42.13;100516.03;5015971;28;55496;-74
2023/06/20 06:51:18;;;;;;;;;11.50;8.25;;;;;32.29;41.85;100507.06;5033835;28;54544;-75
2023/06/20 06:53:43;;;;;;;;;9.00;8.00;;;;;32.28;41.90;100508.97;5034800;28;45360;-76
2023/06/20 06:56:09;;;;;;;;;11.50;10.00;;;;;32.35;41.65;100495.09;5034475;28;45482;-76
2023/06/20 06:58:34;;;;;;;;;12.75;12.75;;;;;32.44;41.92;100487.38;5034147;28;45480;-76
2023/06/20 07:00:59;;;;;;;;;12.25;9.75;;;;;32.58;41.03;100487.09;5033796;28;46602;-75
2023/06/20 07:03:25;;;;;;;;;11.50;9.50;;;;;32.73;41.38;100480.47;5034255;28;45293;-75
2023/06/20 07:05:50;;;;;;;;;10.50;7.25;;;;;32.80;41.38;100482.13;5048302;28;45446;-75
2023/06/20 07:08:15;;;;;;;;;11.00;8.50;;;;;32.85;40.54;100479.53;5045763;28;50892;-75
2023/06/20 07:10:41;;;;;;;;;14.75;10.00;;;;;32.92;40.86;100483.13;5033889;28;45497;-76
2023/06/20 07:13:06;;;;;;;;;9.75;9.75;;;;;32.85;41.07;100489.78;5025077;28;45378;-75
2023/06/20 07:15:32;;;;;;;;;9.50;9.50;;;;;32.91;40.54;100488.91;5038874;28;45308;-76
2023/06/20 07:17:57;;;;;;;;;13.50;9.00;;;;;32.96;40.43;100505.75;5034396;28;45657;-75
2023/06/20 07:20:23;;;;;;;;;9.00;9.00;;;;;32.89;40.71;100504.94;5034159;28;46181;-77
2023/06/20 07:22:48;;;;;;;;;12.75;9.50;;;;;32.86;40.95;100509.00;5027895;28;45377;-76
2023/06/20 07:25:15;;;;;;;;;13.50;9.75;;;;;32.88;41.02;100515.19;5034040;28;45881;-77
2023/06/20 07:27:40;;;;;;;;;12.50;9.50;;;;;32.96;40.18;100519.63;5034407;28;45556;-76
2023/06/20 07:30:06;;;;;;;;;11.75;10.50;;;;;32.89;40.79;100524.38;5033818;28;47114;-76
2023/06/20 07:32:31;;;;;;;;;10.25;9.50;;;;;32.93;40.92;100531.19;5060188;28;45253;-76
2023/06/20 07:34:57;;;;;;;;;10.75;9.50;;;;;32.79;41.28;100533.19;5052603;28;45268;-75
2023/06/20 07:37:22;;;;;;;;;11.50;9.25;;;;;32.87;41.16;100540.41;5033962;28;45459;-76
2023/06/20 07:39:48;;;;;;;;;13.50;11.50;;;;;32.76;41.20;100544.72;5047093;28;45204;-77
2023/06/20 07:42:13;;;;;;;;;10.75;8.75;;;;;32.78;41.06;100545.34;5019967;28;45201;-75
2023/06/20 07:44:38;;;;;;;;;11.00;11.00;;;;;32.85;40.55;100546.16;5038279;28;45801;-76
2023/06/20 07:47:04;;;;;;;;;10.25;10.25;;;;;32.93;40.88;100547.84;5033710;28;45502;-77
2023/06/20 07:49:30;;;;;;;;;10.50;10.25;;;;;33.02;41.05;100552.06;5033589;28;47354;-76
2023/06/20 07:51:55;;;;;;;;;13.75;9.75;;;;;32.99;40.52;100547.84;5041533;28;45316;-75
2023/06/20 07:54:21;;;;;;;;;13.75;10.50;;;;;33.01;40.29;100558.69;5038314;28;45665;-75
2023/06/20 07:56:46;;;;;;;;;13.50;12.00;;;;;32.96;40.52;100547.41;5033806;28;45319;-75
2023/06/20 07:59:11;;;;;;;;;13.75;10.25;;;;;32.93;40.86;100558.94;5033337;28;54248;-77
2023/06/20 08:01:37;;;;;;;;;8.00;7.00;;;;;32.81;40.32;100556.03;5033679;28;45406;-75
2023/06/20 08:04:02;;;;;;;;;15.75;13.75;;;;;32.69;40.86;100560.56;5033376;28;45514;-75
2023/06/20 08:06:28;;;;;;;;;19.25;14.25;;;;;32.73;40.70;100563.75;5041956;28;46424;-76
2023/06/20 08:08:53;;;;;;;;;15.50;15.50;;;;;32.78;40.54;100555.59;5053360;28;45324;-75
2023/06/20 08:11:20;;;;;;;;;12.25;11.75;;;;;32.81;40.10;100544.06;5053544;28;46785;-75
2023/06/20 08:13:46;;;;;;;;;13.00;13.00;;;;;32.69;40.37;100560.56;5053516;28;45331;-75
2023/06/20 08:16:11;;;;;;;;;14.75;14.00;;;;;32.56;40.27;100550.31;5055543;28;45446;-78
2023/06/20 08:18:36;;;;;;;;;15.75;13.75;;;;;32.56;40.27;100546.69;5056800;28;45272;-77
2023/06/20 08:21:02;;;;;;;;;17.50;10.75;;;;;32.58;40.73;100548.16;5056355;28;57399;-76
2023/06/20 08:23:27;;;;;;;;;19.00;12.75;;;;;32.46;41.01;100543.53;5056890;28;45454;-75
2023/06/20 08:25:54;;;;;;;;;12.00;10.75;;;;;32.38;41.05;100532.66;5056837;28;45370;-75
2023/06/20 08:28:20;;;;;;;;;16.25;13.00;;;;;32.79;40.83;100544.28;5056593;28;45566;-76
2023/06/20 08:30:45;;;;;;;;;15.75;13.25;;;;;32.93;40.33;100542.28;5056451;28;45482;-76
2023/06/20 08:33:11;;;;;;;;;11.75;10.75;;;;;32.89;40.38;100536.34;5043847;28;45467;-76
2023/06/20 08:35:36;;;;;;;;;16.00;12.50;;;;;32.67;40.86;100529.34;5047950;28;45328;-75
2023/06/20 08:38:01;;;;;;;;;13.75;13.25;;;;;32.94;40.48;100528.19;5037346;28;45426;-76
2023/06/20 08:40:28;;;;;;;;;11.25;10.50;;;;;33.13;39.89;100523.59;5048720;28;45363;-75
2023/06/20 08:42:57;;;;;;;;;12.00;10.00;;;;;33.47;39.47;100521.47;5036318;28;45529;-74
2023/06/20 08:45:22;;;;;;;;;15.25;14.00;;;;;33.33;40.41;100517.97;5036518;28;45300;-75
2023/06/20 08:47:48;;;;;;;;;15.25;13.75;;;;;33.12;40.06;100513.56;5018143;28;46232;-76
2023/06/20 08:50:13;;;;;;;;;12.75;12.50;;;;;33.38;40.12;100518.13;5023685;28;45286;-76
2023/06/20 08:52:48;;;;;;;;;15.00;13.50;;;;;33.75;39.41;100514.44;5037392;28;45472;-75
2023/06/20 08:55:15;;;;;;;;;14.50;13.25;;;;;33.91;39.61;100526.94;5022278;28;45535;-76
2023/06/20 08:57:41;;;;;;;;;13.00;12.50;;;;;33.70;39.67;100517.00;5039445;28;45378;-74
2023/06/20 09:00:09;;;;;;;;;14.50;12.75;;;;;33.96;39.67;100509.53;5036243;28;45331;-75
2023/06/20 09:02:34;;;;;;;;;15.25;12.75;;;;;33.78;39.87;100511.19;5034933;28;45316;-76
2023/06/20 09:05:02;;;;;;;;;13.00;12.00;;;;;33.83;40.22;100513.31;5043817;28;50778;-75
2023/06/20 09:07:34;;;;;;;;;12.50;12.25;;;;;33.71;40.08;100495.63;5050712;28;46644;-75
2023/06/20 09:10:01;;;;;;;;;14.75;12.75;;;;;33.68;40.21;100498.88;5035910;28;45297;-76
2023/06/20 09:12:26;;;;;;;;;11.75;11.25;;;;;33.55;39.97;100512.88;5036059;28;45320;-75
2023/06/20 09:14:52;;;;;;;;;11.50;10.00;;;;;33.62;39.72;100510.88;5035844;28;45482;-77
2023/06/20 09:17:19;;;;;;;;;20.75;15.25;;;;;33.80;40.11;100509.03;5035657;28;48663;-76
2023/06/20 09:19:46;;;;;;;;;14.00;13.00;;;;;33.86;39.47;100498.09;5036067;28;45296;-74
2023/06/20 09:22:15;;;;;;;;;12.00;11.00;;;;;34.05;39.41;100486.75;5035738;28;45391;-75
2023/06/20 09:24:42;;;;;;;;;13.75;13.75;;;;;34.17;39.11;100492.44;5035782;28;45514;-75
2023/06/20 09:27:08;;;;;;;;;14.75;10.25;;;;;34.38;38.74;100493.91;5035097;28;46061;-75
2023/06/20 09:29:33;;;;;;;;;11.50;11.50;;;;;34.59;38.52;100479.53;5035717;28;45347;-75
2023/06/20 09:31:58;;;;;;;;;15.00;11.50;;;;;34.60;38.33;100485.97;5043453;28;45217;-74
2023/06/20 09:34:24;;;;;;;;;12.50;9.25;;;;;34.72;38.26;100487.69;5048459;28;45256;-73
2023/06/20 09:36:49;;;;;;;;;12.25;11.50;;;;;34.82;38.18;100493.59;5039579;28;47051;-76
2023/06/20 09:39:22;;;;;;;;;10.00;10.00;;;;;34.89;37.99;100494.34;5056248;28;45191;-76
2023/06/20 09:41:52;;;;;;;;;11.75;11.75;;;;;34.76;37.97;100493.69;5018791;28;45518;-74
2023/06/20 09:44:19;;;;;;;;;13.00;13.00;;;;;34.74;37.76;100496.72;5035625;28;45382;-74
2023/06/20 09:46:45;;;;;;;;;12.75;11.75;;;;;34.88;37.31;100489.88;5035442;28;45415;-76
2023/06/20 09:49:15;;;;;;;;;11.50;11.50;;;;;35.04;37.11;100502.31;5035651;28;45447;-74
2023/06/20 09:51:52;;;;;;;;;10.00;9.00;;;;;34.95;36.50;100489.81;5042764;28;45350;-75
2023/06/20 09:54:29;;;;;;;;;13.00;10.00;;;;;34.97;36.14;100495.13;5037221;28;45355;-73
2023/06/20 09:57:03;;;;;;;;;9.25;7.75;;;;;34.74;35.99;100493.94;5037357;28;46298;-76
2023/06/20 09:59:32;;;;;;;;;11.50;11.50;;;;;34.85;36.35;100509.00;5055208;28;45407;-75
2023/06/20 10:01:59;;;;;;;;;13.00;10.25;;;;;34.89;36.32;100516.66;5055551;28;45347;-76
2023/06/20 10:04:26;;;;;;;;;12.75;10.50;;;;;34.80;36.00;100518.06;5034221;28;45360;-75
2023/06/20 10:06:55;;;;;;;;;10.75;9.50;;;;;35.03;36.32;100522.06;5044321;28;45330;-75
2023/06/20 10:09:20;;;;;;;;;9.00;9.00;;;;;34.85;35.92;100522.94;5036424;28;45391;-75
2023/06/20 10:11:46;;;;;;;;;8.50;8.25;;;;;34.59;35.95;100532.44;5035360;28;45222;-76
2023/06/20 10:14:11;;;;;;;;;11.00;11.00;;;;;34.53;36.06;100530.59;5035008;28;45229;-76
2023/06/20 10:16:37;;;;;;;;;11.00;10.00;;;;;34.61;36.44;100543.34;5035084;28;45278;-74
2023/06/20 10:19:18;;;;;;;;;9.75;9.50;;;;;34.88;35.95;100536.38;5034850;28;45247;-76
2023/06/20 10:21:59;;;;;;;;;13.75;8.50;;;;;35.10;35.36;100536.75;5035017;28;45300;-76
2023/06/20 10:24:30;;;;;;;;;8.75;8.75;;;;;35.04;35.10;100546.06;5035053;28;45395;-76
2023/06/20 10:26:59;;;;;;;;;11.00;9.25;;;;;34.96;34.70;100554.72;5034677;28;45509;-75
2023/06/20 10:29:25;;;;;;;;;10.50;7.75;;;;;34.94;34.99;100541.03;5034833;28;45457;-74
2023/06/20 10:32:02;;;;;;;;;10.50;10.00;;;;;35.09;34.88;100551.75;5042040;28;45406;-75
2023/06/20 10:34:32;;;;;;;;;6.50;6.00;;;;;35.10;34.43;100557.09;5048197;28;45307;-76
2023/06/20 10:37:38;;;;;;;;;8.00;6.50;;;;;35.39;34.58;100554.59;5034780;28;46419;-73
2023/06/20 10:40:09;;;;;;;;;9.25;9.25;;;;;35.60;33.69;100563.25;5028838;28;45475;-75
2023/06/20 10:42:41;;;;;;;;;4.50;4.50;;;;;35.48;34.19;100553.13;5034554;28;45405;-76
2023/06/20 10:45:16;;;;;;;;;9.75;6.50;;;;;35.46;33.54;100556.19;5034850;28;47373;-76
2023/06/20 10:47:42;;;;;;;;;4.75;3.75;;;;;35.35;33.60;100561.72;5040911;28;46203;-74
2023/06/20 10:50:07;;;;;;;;;6.25;5.00;;;;;35.21;33.27;100569.41;5034577;28;45759;-75
2023/06/20 10:52:35;;;;;;;;;8.00;7.25;;;;;34.75;34.29;100568.06;5034733;28;45454;-74
2023/06/20 10:55:01;;;;;;;;;8.75;8.00;;;;;35.04;34.28;100568.34;5032243;28;45324;-75
2023/06/20 10:57:28;;;;;;;;;5.75;5.75;;;;;34.79;34.99;100555.34;5053793;28;46331;-76
2023/06/20 10:59:53;;;;;;;;;10.00;7.50;;;;;34.95;34.50;100569.75;5034556;28;45189;-74
2023/06/20 11:02:19;;;;;;;;;6.25;3.00;;;;;34.96;34.56;100555.59;5034423;28;45314;-76
2023/06/20 11:04:48;;;;;;;;;7.25;7.25;;;;;35.24;34.72;100560.56;5040455;28;46076;-74
2023/06/20 11:07:13;;;;;;;;;3.25;3.25;;;;;34.84;34.84;100554.66;5053752;28;46124;-76
2023/06/20 11:09:39;;;;;;;;;8.50;7.00;;;;;34.69;35.35;100568.09;5034320;28;45292;-75
2023/06/20 11:12:07;;;;;;;;;7.00;7.00;;;;;34.69;35.80;100574.53;5034700;28;45416;-75
2023/06/20 11:14:33;;;;;;;;;7.00;5.00;;;;;34.97;35.75;100578.69;5034136;28;45217;-75
2023/06/20 11:16:58;;;;;;;;;8.00;8.00;;;;;35.14;35.56;100577.81;5016340;28;47913;-75
2023/06/20 11:19:27;;;;;;;;;7.00;6.00;;;;;35.23;35.51;100576.44;5034428;28;45178;-75
2023/06/20 11:21:53;;;;;;;;;6.75;5.75;;;;;35.50;35.28;100573.28;5034266;28;45294;-76
2023/06/20 11:24:21;;;;;;;;;10.25;6.75;;;;;35.72;35.09;100570.84;5034213;28;45253;-76
2023/06/20 11:26:46;;;;;;;;;6.75;6.00;;;;;35.94;34.87;100572.81;5033907;28;45246;-75
2023/06/20 11:29:12;;;;;;;;;8.50;7.00;;;;;35.84;34.11;100566.09;5033999;28;45348;-76
2023/06/20 11:31:37;;;;;;;;;7.00;6.00;;;;;36.06;33.92;100578.41;5041821;28;45320;-76
2023/06/20 11:34:06;;;;;;;;;8.75;7.00;;;;;35.34;34.64;100580.38;5022564;28;45474;-74
2023/06/20 11:36:36;;;;;;;;;5.75;5.50;;;;;35.39;34.45;100574.94;5033905;28;46489;-76
2023/06/20 11:39:08;;;;;;;;;8.50;6.50;;;;;35.47;34.56;100574.63;5043336;28;45484;-76
2023/06/20 11:41:35;;;;;;;;;9.00;8.25;;;;;35.79;34.39;100571.56;5054007;28;45389;-75
2023/06/20 11:44:01;;;;;;;;;9.50;7.00;;;;;35.90;33.74;100565.16;5054265;28;45284;-76
2023/06/20 11:46:27;;;;;;;;;7.00;7.00;;;;;35.97;33.64;100568.69;5053804;28;46083;-75
2023/06/20 11:48:56;;;;;;;;;6.50;6.00;;;;;35.81;33.55;100561.03;5054156;28;45318;-74
2023/06/20 11:51:24;;;;;;;;;7.00;7.00;;;;;36.13;33.59;100555.97;5056682;28;45356;-74
2023/06/20 11:54:09;;;;;;;;;11.75;8.00;;;;;36.05;33.53;100556.31;5057570;28;45386;-75
2023/06/20 11:56:34;;;;;;;;;8.50;8.50;;;;;35.67;33.79;100554.78;5057041;28;46549;-77
2023/06/20 11:59:00;;;;;;;;;13.50;9.25;;;;;35.51;34.06;100556.31;5057248;28;45359;-74
2023/06/20 12:01:25;;;;;;;;;7.25;7.25;;;;;35.99;32.74;100545.00;5057863;28;45287;-75
2023/06/20 12:04:10;;;;;;;;;6.75;6.75;;;;;36.42;32.61;100543.81;5057304;28;45374;-75
2023/06/20 12:06:36;;;;;;;;;9.00;7.50;;;;;36.63;32.83;100534.81;5047180;28;46241;-74
2023/06/20 12:09:15;;;;;;;;;10.75;10.75;;;;;36.46;31.82;100530.22;5057092;28;45244;-75
2023/06/20 12:11:56;;;;;;;;;10.00;10.00;;;;;36.15;31.77;100537.88;5057309;28;45375;-76
2023/06/20 12:14:23;;;;;;;;;9.00;8.25;;;;;36.34;31.46;100539.47;5057095;28;45498;-76
2023/06/20 12:16:49;;;;;;;;;8.25;8.25;;;;;36.63;31.48;100548.78;5057089;28;45335;-75
2023/06/20 12:19:15;;;;;;;;;9.00;9.00;;;;;36.93;30.82;100544.94;5057193;28;45357;-76
2023/06/20 12:21:42;;;;;;;;;12.25;10.00;;;;;36.76;31.50;100558.84;5039271;28;45557;-75
2023/06/20 12:24:08;;;;;;;;;11.50;9.00;;;;;36.87;30.98;100559.94;5057258;28;45641;-75
2023/06/20 12:26:34;;;;;;;;;11.75;9.25;;;;;36.91;31.16;100567.59;5056902;28;46411;-76
2023/06/20 12:28:59;;;;;;;;;12.75;9.50;;;;;36.87;31.34;100562.72;5056932;28;45433;-75
2023/06/20 12:31:25;;;;;;;;;8.75;8.00;;;;;37.24;31.48;100555.69;5056555;28;45328;-74
2023/06/20 12:33:50;;;;;;;;;9.75;8.25;;;;;37.41;31.10;100548.19;5044910;28;45450;-76
2023/06/20 12:36:17;;;;;;;;;9.75;9.75;;;;;37.50;31.31;100551.44;5043305;28;45360;-76
2023/06/20 12:38:43;;;;;;;;;9.25;7.00;;;;;37.79;30.86;100541.03;5043657;28;45286;-74
2023/06/20 12:41:10;;;;;;;;;10.00;10.00;;;;;37.85;30.20;100549.28;5043670;28;45395;-76
2023/06/20 12:43:36;;;;;;;;;7.75;7.75;;;;;37.75;30.17;100557.50;5043582;28;45517;-76
2023/06/20 12:46:01;;;;;;;;;8.50;8.50;;;;;37.73;29.92;100562.50;5056575;28;45461;-75
2023/06/20 12:48:27;;;;;;;;;7.50;7.00;;;;;37.63;29.93;100565.13;5056855;28;45355;-76
2023/06/20 12:50:52;;;;;;;;;7.50;5.75;;;;;37.52;30.33;100566.00;5056923;28;45370;-75
2023/06/20 12:53:18;;;;;;;;;6.75;6.75;;;;;37.40;30.63;100568.88;5038336;28;45968;-75
2023/06/20 12:55:44;;;;;;;;;8.25;8.25;;;;;37.32;30.25;100577.66;5056577;28;45323;-75
2023/06/20 12:58:11;;;;;;;;;8.25;7.50;;;;;37.26;31.02;100577.81;5056681;28;45374;-75
2023/06/20 13:00:38;;;;;;;;;8.75;7.25;;;;;37.38;30.89;100571.06;5056346;28;45176;-74
2023/06/20 13:03:04;;;;;;;;;8.00;7.50;;;;;36.32;31.35;100572.38;5055261;28;46477;-75
2023/06/20 13:05:29;;;;;;;;;9.25;9.25;;;;;36.64;31.04;100580.34;5044048;28;45427;-75
2023/06/20 13:07:55;;;;;;;;;8.50;8.50;;;;;36.37;31.50;100577.22;5046651;28;45217;-75
2023/06/20 13:10:21;;;;;;;;;10.75;7.75;;;;;35.80;32.21;100604.81;5036344;28;45755;-75
2023/06/20 13:12:48;;;;;;;;;12.00;9.25;;;;;35.63;32.87;100590.66;5036179;28;45442;-76
2023/06/20 13:15:19;;;;;;;;;8.00;8.00;;;;;36.00;31.98;100582.16;5036173;28;46234;-76
2023/06/20 13:17:44;;;;;;;;;9.50;7.75;;;;;36.09;32.29;100588.22;5036086;28;45362;-75
2023/06/20 13:20:10;;;;;;;;;8.50;7.00;;;;;36.30;32.35;100574.56;5035998;28;45257;-75
2023/06/20 13:22:36;;;;;;;;;9.75;9.75;;;;;36.26;32.23;100573.34;5036139;28;45450;-73
2023/06/20 13:25:02;;;;;;;;;10.25;10.25;;;;;35.75;33.05;100571.19;5049478;28;45910;-75
2023/06/20 13:27:28;;;;;;;;;6.75;6.00;;;;;36.01;32.80;100567.09;5036040;28;45428;-74
2023/06/20 13:30:00;;;;;;;;;9.50;9.50;;;;;36.55;32.17;100557.53;5025854;28;45549;-76
2023/06/20 13:32:25;;;;;;;;;9.25;9.25;;;;;36.93;31.84;100545.81;5059732;28;45338;-76
2023/06/20 13:34:51;;;;;;;;;8.25;6.25;;;;;37.46;31.18;100544.63;5053249;28;50152;-75
2023/06/20 13:37:16;;;;;;;;;13.00;11.75;;;;;37.90;30.86;100545.72;5035988;28;45433;-75
2023/06/20 13:39:43;;;;;;;;;9.25;9.00;;;;;37.82;30.26;100534.94;5048813;28;45478;-75
2023/06/20 13:42:09;;;;;;;;;10.50;8.00;;;;;37.75;30.15;100534.28;5035871;28;45473;-75
2023/06/20 13:44:34;;;;;;;;;11.00;9.50;;;;;37.90;29.97;100542.91;5035383;28;46276;-76
2023/06/20 13:47:00;;;;;;;;;6.00;6.00;;;;;37.97;29.92;100542.75;5036248;28;45308;-75
2023/06/20 13:49:25;;;;;;;;;8.25;7.75;;;;;37.54;29.67;100547.00;5036180;28;45269;-74
2023/06/20 13:51:51;;;;;;;;;9.50;7.25;;;;;37.70;29.65;100551.81;5017856;28;45421;-74
2023/06/20 13:54:17;;;;;;;;;6.00;6.00;;;;;37.57;29.56;100556.88;5035244;28;56949;-74
2023/06/20 13:56:42;;;;;;;;;9.25;7.50;;;;;37.70;29.33;100556.56;5035595;28;45441;-76
2023/06/20 13:59:08;;;;;;;;;5.75;5.75;;;;;37.65;29.46;100565.72;5017443;28;45360;-74
2023/06/20 14:01:34;;;;;;;;;6.50;6.50;;;;;38.04;29.47;100554.59;5025431;28;45550;-75
2023/06/20 14:04:01;;;;;;;;;6.00;6.00;;;;;38.09;29.11;100569.59;5040471;28;46046;-75
2023/06/20 14:06:27;;;;;;;;;8.75;8.25;;;;;37.43;29.94;100562.75;5052661;28;45418;-75
2023/06/20 14:08:53;;;;;;;;;8.00;7.00;;;;;37.42;29.95;100561.09;5040281;28;45578;-76
2023/06/20 14:11:18;;;;;;;;;8.75;7.25;;;;;37.39;30.05;100564.38;5035313;28;45488;-75
2023/06/20 14:13:43;;;;;;;;;5.25;5.25;;;;;37.47;29.77;100568.72;5034917;28;46005;-75
2023/06/20 14:16:09;;;;;;;;;7.00;6.00;;;;;37.04;29.96;100569.22;5017469;28;45442;-75
2023/06/20 14:18:34;;;;;;;;;6.25;6.25;;;;;37.16;30.16;100563.63;5035232;28;45375;-75
2023/06/20 14:20:59;;;;;;;;;6.25;6.25;;;;;36.77;30.70;100557.75;5035299;28;45252;-75
2023/06/20 14:23:25;;;;;;;;;7.75;6.00;;;;;36.94;30.76;100555.03;5034909;28;46313;-75
2023/06/20 14:25:50;;;;;;;;;8.00;8.00;;;;;36.83;30.62;100553.16;5035185;28;45337;-75
2023/06/20 14:28:18;;;;;;;;;7.00;7.00;;;;;36.98;30.79;100551.50;5035312;28;45764;-76
2023/06/20 14:30:46;;;;;;;;;8.75;7.00;;;;;36.77;30.07;100557.75;5037114;28;45208;-75
2023/06/20 14:33:12;;;;;;;;;8.50;5.00;;;;;36.64;30.07;100560.81;5024212;28;47644;-75
2023/06/20 14:35:38;;;;;;;;;6.75;6.75;;;;;35.84;30.53;100568.91;5046693;28;45366;-74
2023/06/20 14:38:03;;;;;;;;;5.75;4.50;;;;;36.11;30.81;100572.94;5036163;28;45959;-75
2023/06/20 14:40:29;;;;;;;;;3.75;3.75;;;;;35.85;30.90;100607.72;5047035;28;45443;-76
2023/06/20 14:42:55;;;;;;;;;3.25;2.25;;;;;35.95;30.50;100577.31;5016576;28;46383;-75
2023/06/20 14:45:20;;;;;;;;;6.00;4.25;;;;;35.84;30.07;100583.69;5034961;28;45366;-75
2023/06/20 14:47:46;;;;;;;;;4.00;2.75;;;;;35.40;30.86;100573.00;5034872;28;45337;-74
2023/06/20 14:50:11;;;;;;;;;3.00;3.00;;;;;35.90;30.10;100593.06;5034733;28;45568;-76
2023/06/20 14:52:36;;;;;;;;;7.00;5.00;;;;;35.79;30.09;100577.16;5034487;28;46521;-77
2023/06/20 14:55:02;;;;;;;;;5.00;3.75;;;;;35.96;29.88;100581.78;5034637;28;45208;-74
2023/06/20 14:57:28;;;;;;;;;3.25;3.25;;;;;36.16;29.82;100581.44;5034646;28;45283;-76
2023/06/20 14:59:53;;;;;;;;;4.25;4.00;;;;;36.01;29.80;100581.06;5034655;28;45284;-77
2023/06/20 15:02:19;;;;;;;;;4.00;4.00;;;;;36.03;29.83;100595.63;5034511;28;45207;-75
2023/06/20 15:04:44;;;;;;;;;5.75;4.00;;;;;36.08;30.11;100587.38;5034956;28;45317;-74
2023/06/20 15:07:10;;;;;;;;;6.00;5.50;;;;;35.86;30.20;100583.47;5035792;28;45279;-73
2023/06/20 15:09:35;;;;;;;;;6.00;5.25;;;;;36.08;30.04;100592.94;5034295;28;45221;-75
2023/06/20 15:12:01;;;;;;;;;6.25;4.00;;;;;35.55;31.14;100598.53;5016327;28;46219;-76
2023/06/20 15:14:26;;;;;;;;;7.00;4.00;;;;;34.98;31.66;100595.19;5015913;28;45535;-75
2023/06/20 15:16:51;;;;;;;;;2.00;1.00;;;;;35.56;31.26;100591.84;5034827;28;45444;-76
2023/06/20 15:19:17;;;;;;;;;2.75;2.75;;;;;35.60;30.75;100591.13;5034532;28;45357;-75
2023/06/20 15:21:42;;;;;;;;;3.50;3.50;;;;;35.74;30.58;100593.75;5033890;28;46308;-77
2023/06/20 15:24:08;;;;;;;;;3.75;3.75;;;;;35.59;30.82;100595.00;5034384;28;45414;-77
2023/06/20 15:26:33;;;;;;;;;4.50;4.50;;;;;35.82;30.69;100601.75;5037374;28;45470;-78
2023/06/20 15:29:02;;;;;;;;;4.75;4.75;;;;;35.93;30.89;100598.16;5019646;28;46338;-79
2023/06/20 15:31:27;;;;;;;;;3.75;3.50;;;;;35.65;31.58;100596.00;5045946;28;46037;-76
2023/06/20 15:33:52;;;;;;;;;5.00;4.00;;;;;35.43;31.82;100598.47;5024556;28;48384;-75
2023/06/20 15:36:18;;;;;;;;;4.75;2.75;;;;;35.18;32.27;100600.50;5038087;28;45459;-77
2023/06/20 15:38:43;;;;;;;;;4.25;3.50;;;;;35.16;32.64;100591.53;5045091;28;46029;-76
2023/06/20 15:41:08;;;;;;;;;4.50;4.50;;;;;35.09;32.64;100599.13;5044134;28;45945;-73
2023/06/20 15:43:36;;;;;;;;;5.00;5.00;;;;;35.14;32.22;100596.47;5037232;28;45167;-73
2023/06/20 15:46:02;;;;;;;;;5.00;5.00;;;;;35.34;31.95;100604.63;5036693;28;45670;-73
2023/06/20 15:48:28;;;;;;;;;4.75;3.75;;;;;35.25;32.28;100596.56;5037561;28;45498;-73